createdAt,value
2017-07-11T00:00:49.501Z,0
2017-07-11T00:01:49.582Z,0
2017-07-11T00:02:49.582Z,0
2017-07-11T00:03:49.500Z,0
2017-07-11T00:04:49.583Z,0
2017-07-11T00:05:49.685Z,0
2017-07-11T00:06:49.587Z,0
2017-07-11T00:07:49.504Z,0
2017-07-11T00:08:49.589Z,0
2017-07-11T00:09:49.601Z,0
2017-07-11T00:10:49.556Z,0
2017-07-11T00:11:49.523Z,0
2017-07-11T00:12:49.599Z,0
2017-07-11T00:13:49.500Z,0
2017-07-11T00:14:49.597Z,0
2017-07-11T00:15:49.600Z,0
2017-07-11T00:16:49.587Z,0
2017-07-11T00:17:49.513Z,0
2017-07-11T00:18:49.561Z,0
2017-07-11T00:19:49.594Z,0
2017-07-11T00:20:49.560Z,0
2017-07-11T00:21:49.516Z,0
2017-07-11T00:22:49.569Z,0
2017-07-11T00:23:49.565Z,0
2017-07-11T00:24:49.563Z,0
2017-07-11T00:25:49.565Z,0
2017-07-11T00:26:49.565Z,0
2017-07-11T00:27:49.652Z,0
2017-07-11T00:28:49.566Z,0
2017-07-11T00:29:49.567Z,0
2017-07-11T00:30:49.567Z,0
2017-07-11T00:31:49.571Z,0
2017-07-11T00:32:49.519Z,0
2017-07-11T00:33:49.591Z,0
2017-07-11T00:34:49.584Z,0
2017-07-11T00:35:49.520Z,0
2017-07-11T00:36:49.599Z,0
2017-07-11T00:37:49.597Z,0
2017-07-11T00:38:49.570Z,0
2017-07-11T00:39:49.516Z,0
2017-07-11T00:40:49.593Z,0
2017-07-11T00:41:49.526Z,0
2017-07-11T00:42:49.591Z,0
2017-07-11T00:43:49.572Z,0
2017-07-11T00:44:49.612Z,0
2017-07-11T00:45:49.591Z,0
2017-07-11T00:46:49.528Z,0
2017-07-11T00:47:49.618Z,0
2017-07-11T00:48:49.594Z,0
2017-07-11T00:49:49.529Z,0
2017-07-11T00:50:49.616Z,0
2017-07-11T00:51:49.607Z,0
2017-07-11T00:52:49.530Z,0
2017-07-11T00:53:49.622Z,0
2017-07-11T00:54:49.528Z,0
2017-07-11T00:55:49.535Z,0
2017-07-11T00:56:49.618Z,0
2017-07-11T00:57:49.604Z,0
2017-07-11T00:58:49.601Z,0
2017-07-11T00:59:49.625Z,0
2017-07-11T01:00:49.615Z,0
2017-07-11T01:01:49.529Z,0
2017-07-11T01:02:49.622Z,0
2017-07-11T01:03:49.631Z,0
2017-07-11T01:04:49.580Z,0
2017-07-11T01:05:49.557Z,0
2017-07-11T01:06:49.630Z,0
2017-07-11T01:07:49.626Z,0
2017-07-11T01:08:49.561Z,0
2017-07-11T01:09:49.561Z,0
2017-07-11T01:10:49.629Z,0
2017-07-11T01:11:49.565Z,0
2017-07-11T01:12:49.607Z,0
2017-07-11T01:13:49.686Z,0
2017-07-11T01:14:49.610Z,0
2017-07-11T01:15:49.567Z,0
2017-07-11T01:16:49.613Z,0
2017-07-11T01:17:49.621Z,0
2017-07-11T01:18:49.621Z,0
2017-07-11T01:19:49.638Z,0
2017-07-11T01:20:49.611Z,0
2017-07-11T01:21:49.616Z,0
2017-07-11T01:22:49.592Z,0
2017-07-11T01:23:49.623Z,0
2017-07-11T01:24:49.644Z,0
2017-07-11T01:25:49.678Z,0
2017-07-11T01:26:49.630Z,0
2017-07-11T01:27:49.630Z,0
2017-07-11T01:28:49.639Z,0
2017-07-11T01:29:49.600Z,0
2017-07-11T01:30:49.556Z,0
2017-07-11T01:31:49.643Z,0
2017-07-11T01:32:49.602Z,0
2017-07-11T01:33:49.636Z,0
2017-07-11T01:34:49.641Z,0
2017-07-11T01:35:49.645Z,0
2017-07-11T01:36:49.626Z,0
2017-07-11T01:37:49.645Z,0
2017-07-11T01:38:49.550Z,0
2017-07-11T01:39:49.602Z,0
2017-07-11T01:40:49.652Z,0
2017-07-11T01:41:49.553Z,0
2017-07-11T01:42:49.594Z,0
2017-07-11T01:43:49.596Z,0
2017-07-11T01:44:49.580Z,0
2017-07-11T01:45:49.601Z,0
2017-07-11T01:46:49.650Z,0
2017-07-11T01:47:49.648Z,0
2017-07-11T01:48:49.579Z,0
2017-07-11T01:49:49.555Z,0
2017-07-11T01:50:49.587Z,0
2017-07-11T01:51:49.651Z,0
2017-07-11T01:53:49.618Z,0
2017-07-11T01:54:49.617Z,0
2017-07-11T01:55:49.618Z,0
2017-07-11T01:56:49.618Z,0
2017-07-11T01:57:49.620Z,0
2017-07-11T01:58:49.618Z,0
2017-07-11T01:59:49.619Z,0
2017-07-11T02:00:49.622Z,0
2017-07-11T02:01:49.626Z,0
2017-07-11T02:02:49.621Z,0
2017-07-11T02:03:49.625Z,0
2017-07-11T02:04:49.621Z,0
2017-07-11T02:05:49.625Z,0
2017-07-11T02:06:49.625Z,0
2017-07-11T02:07:49.628Z,0
2017-07-11T02:08:49.626Z,0
2017-07-11T02:09:49.628Z,0
2017-07-11T02:10:49.637Z,0
2017-07-11T02:11:49.630Z,0
2017-07-11T02:12:49.627Z,0
2017-07-11T02:13:49.630Z,0
2017-07-11T02:14:49.630Z,0
2017-07-11T02:15:49.666Z,0
2017-07-11T02:16:49.636Z,0
2017-07-11T02:17:49.633Z,0
2017-07-11T02:18:49.628Z,0
2017-07-11T02:19:49.635Z,0
2017-07-11T02:20:49.635Z,0
2017-07-11T02:21:49.635Z,0
2017-07-11T02:22:49.630Z,0
2017-07-11T02:23:49.649Z,0
2017-07-11T02:24:49.656Z,0
2017-07-11T02:25:49.652Z,0
2017-07-11T02:26:49.676Z,0
2017-07-11T02:27:49.648Z,0
2017-07-11T02:28:49.653Z,0
2017-07-11T02:29:49.650Z,0
2017-07-11T02:30:49.620Z,0
2017-07-11T02:31:49.653Z,0
2017-07-11T02:32:49.653Z,0
2017-07-11T02:33:49.673Z,0
2017-07-11T02:34:49.677Z,0
2017-07-11T02:35:49.681Z,0
2017-07-11T02:36:49.674Z,0
2017-07-11T02:37:49.673Z,0
2017-07-11T02:38:49.695Z,0
2017-07-11T02:39:49.660Z,0
2017-07-11T02:40:49.660Z,0
2017-07-11T02:41:49.586Z,0
2017-07-11T02:42:49.681Z,0
2017-07-11T02:43:49.656Z,0
2017-07-11T02:44:49.688Z,0
2017-07-11T02:45:49.658Z,0
2017-07-11T02:46:49.663Z,0
2017-07-11T02:47:49.664Z,0
2017-07-11T02:48:49.666Z,0
2017-07-11T02:49:49.674Z,0
2017-07-11T02:50:49.666Z,0
2017-07-11T02:51:49.664Z,0
2017-07-11T02:52:49.667Z,0
2017-07-11T02:53:49.664Z,0
2017-07-11T02:54:49.666Z,0
2017-07-11T02:55:49.673Z,0
2017-07-11T02:56:49.659Z,0
2017-07-11T02:57:49.681Z,0
2017-07-11T02:58:49.666Z,5
2017-07-11T02:59:49.757Z,5
2017-07-11T03:00:49.668Z,5
2017-07-11T03:01:49.670Z,5
2017-07-11T03:02:49.667Z,5
2017-07-11T03:03:49.660Z,5
2017-07-11T03:04:49.664Z,11
2017-07-11T03:05:49.662Z,11
2017-07-11T03:06:49.663Z,11
2017-07-11T03:07:49.665Z,11
2017-07-11T03:08:49.666Z,16
2017-07-11T03:09:49.667Z,16
2017-07-11T03:10:49.665Z,16
2017-07-11T03:11:49.667Z,22
2017-07-11T03:12:49.666Z,22
2017-07-11T03:13:49.679Z,22
2017-07-11T03:14:49.689Z,22
2017-07-11T03:15:49.691Z,22
2017-07-11T03:16:49.598Z,22
2017-07-11T03:17:49.690Z,28
2017-07-11T03:18:49.604Z,28
2017-07-11T03:19:49.605Z,28
2017-07-11T03:20:49.687Z,28
2017-07-11T03:21:49.604Z,33
2017-07-11T03:22:49.666Z,33
2017-07-11T03:23:49.696Z,39
2017-07-11T03:24:49.620Z,39
2017-07-11T03:25:49.638Z,39
2017-07-11T03:26:49.618Z,45
2017-07-11T03:27:49.687Z,45
2017-07-11T03:28:49.690Z,50
2017-07-11T03:29:49.702Z,50
2017-07-11T03:30:49.699Z,56
2017-07-11T03:31:49.710Z,61
2017-07-11T03:32:49.666Z,61
2017-07-11T03:33:49.700Z,67
2017-07-11T03:34:49.641Z,73
2017-07-11T03:35:49.710Z,73
2017-07-11T03:36:49.699Z,78
2017-07-11T03:37:49.698Z,84
2017-07-11T03:38:49.670Z,90
2017-07-11T03:39:49.710Z,95
2017-07-11T03:40:49.696Z,95
2017-07-11T03:41:49.703Z,106
2017-07-11T03:42:49.705Z,106
2017-07-11T03:43:49.716Z,112
2017-07-11T03:44:49.627Z,112
2017-07-11T03:45:49.708Z,123
2017-07-11T03:46:49.678Z,129
2017-07-11T03:47:49.704Z,135
2017-07-11T03:48:49.694Z,135
2017-07-11T03:49:49.694Z,140
2017-07-11T03:50:49.708Z,146
2017-07-11T03:51:49.636Z,151
2017-07-11T03:52:49.673Z,157
2017-07-11T03:53:49.724Z,157
2017-07-11T03:54:49.818Z,163
2017-07-11T03:55:49.677Z,168
2017-07-11T03:56:49.629Z,168
2017-07-11T03:57:49.716Z,174
2017-07-11T03:58:49.730Z,174
2017-07-11T03:59:49.628Z,174
2017-07-11T04:00:49.679Z,180
2017-07-11T04:01:49.660Z,174
2017-07-11T04:02:49.715Z,180
2017-07-11T04:03:49.640Z,185
2017-07-11T04:04:49.733Z,191
2017-07-11T04:05:49.681Z,202
2017-07-11T04:06:49.716Z,213
2017-07-11T04:07:49.845Z,219
2017-07-11T04:08:49.716Z,225
2017-07-11T04:09:49.640Z,230
2017-07-11T04:10:49.682Z,241
2017-07-11T04:11:49.646Z,253
2017-07-11T04:12:49.689Z,264
2017-07-11T04:13:49.791Z,281
2017-07-11T04:14:49.718Z,292
2017-07-11T04:15:49.716Z,303
2017-07-11T04:16:49.725Z,309
2017-07-11T04:17:49.715Z,320
2017-07-11T04:18:49.715Z,326
2017-07-11T04:19:49.716Z,337
2017-07-11T04:20:49.716Z,343
2017-07-11T04:21:49.715Z,343
2017-07-11T04:22:49.717Z,348
2017-07-11T04:23:49.646Z,354
2017-07-11T04:24:49.655Z,354
2017-07-11T04:25:49.743Z,360
2017-07-11T04:26:49.736Z,365
2017-07-11T04:27:49.702Z,371
2017-07-11T04:28:49.701Z,376
2017-07-11T04:29:49.744Z,388
2017-07-11T04:30:49.732Z,393
2017-07-11T04:31:49.703Z,399
2017-07-11T04:32:49.741Z,416
2017-07-11T04:33:49.705Z,421
2017-07-11T04:34:49.655Z,421
2017-07-11T04:35:49.710Z,427
2017-07-11T04:36:49.738Z,438
2017-07-11T04:37:49.753Z,433
2017-07-11T04:38:49.736Z,438
2017-07-11T04:39:49.674Z,438
2017-07-11T04:40:49.709Z,438
2017-07-11T04:41:49.737Z,438
2017-07-11T04:42:49.676Z,444
2017-07-11T04:43:49.678Z,444
2017-07-11T04:44:49.706Z,450
2017-07-11T04:45:49.710Z,450
2017-07-11T04:46:49.714Z,433
2017-07-11T04:47:49.708Z,433
2017-07-11T04:48:49.759Z,433
2017-07-11T04:49:49.666Z,433
2017-07-11T04:50:49.712Z,421
2017-07-11T04:51:49.750Z,427
2017-07-11T04:52:49.743Z,410
2017-07-11T04:53:49.718Z,393
2017-07-11T04:54:49.721Z,382
2017-07-11T04:55:49.717Z,376
2017-07-11T04:56:49.717Z,376
2017-07-11T04:57:49.719Z,354
2017-07-11T04:58:49.717Z,354
2017-07-11T04:59:49.723Z,348
2017-07-11T05:00:49.720Z,348
2017-07-11T05:01:49.725Z,354
2017-07-11T05:02:49.722Z,371
2017-07-11T05:03:49.756Z,393
2017-07-11T05:04:49.672Z,410
2017-07-11T05:05:49.768Z,427
2017-07-11T05:06:49.760Z,444
2017-07-11T05:07:49.720Z,450
2017-07-11T05:08:49.764Z,450
2017-07-11T05:09:49.728Z,450
2017-07-11T05:10:49.757Z,444
2017-07-11T05:11:49.759Z,450
2017-07-11T05:12:49.693Z,461
2017-07-11T05:13:49.745Z,472
2017-07-11T05:14:49.656Z,461
2017-07-11T05:15:49.747Z,478
2017-07-11T05:16:49.744Z,483
2017-07-11T05:17:49.761Z,495
2017-07-11T05:18:49.754Z,506
2017-07-11T05:19:49.746Z,495
2017-07-11T05:20:49.686Z,500
2017-07-11T05:21:49.752Z,517
2017-07-11T05:22:49.746Z,517
2017-07-11T05:23:49.698Z,540
2017-07-11T05:24:49.782Z,534
2017-07-11T05:25:49.764Z,534
2017-07-11T05:26:49.764Z,540
2017-07-11T05:27:49.693Z,534
2017-07-11T05:28:49.733Z,540
2017-07-11T05:29:49.687Z,540
2017-07-11T05:30:49.769Z,534
2017-07-11T05:31:49.783Z,551
2017-07-11T05:32:49.682Z,562
2017-07-11T05:33:49.756Z,585
2017-07-11T05:34:49.923Z,618
2017-07-11T05:35:49.773Z,652
2017-07-11T05:36:49.735Z,686
2017-07-11T05:37:49.771Z,697
2017-07-11T05:38:49.694Z,680
2017-07-11T05:39:49.773Z,703
2017-07-11T05:40:49.691Z,787
2017-07-11T05:41:49.774Z,905
2017-07-11T05:42:49.768Z,1046
2017-07-11T05:43:49.787Z,1001
2017-07-11T05:44:49.715Z,905
2017-07-11T05:45:49.682Z,832
2017-07-11T05:46:49.739Z,821
2017-07-11T05:47:49.727Z,838
2017-07-11T05:48:49.722Z,770
2017-07-11T05:49:49.717Z,725
2017-07-11T05:50:49.736Z,708
2017-07-11T05:51:49.728Z,905
2017-07-11T05:52:49.739Z,804
2017-07-11T05:53:49.739Z,888
2017-07-11T05:54:49.756Z,990
2017-07-11T05:55:49.755Z,1153
2017-07-11T05:56:49.755Z,1327
2017-07-11T05:57:49.757Z,1057
2017-07-11T05:58:49.755Z,1108
2017-07-11T05:59:49.755Z,888
2017-07-11T06:00:49.756Z,894
2017-07-11T06:01:49.760Z,950
2017-07-11T06:02:49.763Z,1423
2017-07-11T06:03:49.760Z,1074
2017-07-11T06:04:49.683Z,1046
2017-07-11T06:05:49.705Z,984
2017-07-11T06:06:49.729Z,1051
2017-07-11T06:07:49.773Z,1175
2017-07-11T06:08:49.745Z,1760
2017-07-11T06:09:49.729Z,1743
2017-07-11T06:10:49.702Z,1400
2017-07-11T06:11:49.731Z,1828
2017-07-11T06:12:49.732Z,1507
2017-07-11T06:13:49.752Z,1867
2017-07-11T06:14:49.763Z,1935
2017-07-11T06:15:49.778Z,2025
2017-07-11T06:16:49.795Z,2137
2017-07-11T06:17:49.786Z,2407
2017-07-11T06:18:49.797Z,2463
2017-07-11T06:19:49.764Z,2441
2017-07-11T06:20:49.717Z,1541
2017-07-11T06:21:49.802Z,1383
2017-07-11T06:22:49.810Z,1462
2017-07-11T06:23:49.804Z,1327
2017-07-11T06:24:49.765Z,1265
2017-07-11T06:25:49.817Z,1147
2017-07-11T06:26:49.806Z,1186
2017-07-11T06:27:49.780Z,1074
2017-07-11T06:28:49.769Z,1063
2017-07-11T06:29:49.796Z,1063
2017-07-11T06:30:49.770Z,1080
2017-07-11T06:31:49.809Z,1108
2017-07-11T06:32:49.789Z,1254
2017-07-11T06:33:49.784Z,2205
2017-07-11T06:34:49.767Z,2289
2017-07-11T06:35:49.769Z,2306
2017-07-11T06:36:49.763Z,2345
2017-07-11T06:37:49.724Z,2362
2017-07-11T06:38:49.811Z,2390
2017-07-11T06:39:49.731Z,2418
2017-07-11T06:40:49.775Z,2446
2017-07-11T06:41:49.725Z,2514
2017-07-11T06:42:49.788Z,2531
2017-07-11T06:43:49.820Z,2570
2017-07-11T06:44:49.837Z,2615
2017-07-11T06:45:49.739Z,2638
2017-07-11T06:46:49.728Z,2655
2017-07-11T06:47:49.796Z,2671
2017-07-11T06:48:49.783Z,2705
2017-07-11T06:49:49.735Z,2711
2017-07-11T06:50:49.825Z,2728
2017-07-11T06:51:49.740Z,2778
2017-07-11T06:52:49.738Z,2835
2017-07-11T06:53:49.736Z,2902
2017-07-11T06:54:49.727Z,2964
2017-07-11T06:55:49.797Z,2998
2017-07-11T06:56:49.798Z,2981
2017-07-11T06:57:49.729Z,3009
2017-07-11T06:58:49.819Z,1445
2017-07-11T06:59:49.782Z,1625
2017-07-11T07:00:49.826Z,1721
2017-07-11T07:01:49.750Z,1563
2017-07-11T07:02:49.815Z,1558
2017-07-11T07:03:49.804Z,1659
2017-07-11T07:04:49.839Z,1344
2017-07-11T07:05:49.822Z,1327
2017-07-11T07:06:49.819Z,1282
2017-07-11T07:07:49.811Z,1254
2017-07-11T07:08:49.807Z,1265
2017-07-11T07:09:49.733Z,1333
2017-07-11T07:10:49.826Z,1378
2017-07-11T07:11:49.749Z,2998
2017-07-11T07:12:49.784Z,2683
2017-07-11T07:13:49.833Z,3262
2017-07-11T07:14:49.835Z,3296
2017-07-11T07:15:49.834Z,3279
2017-07-11T07:16:49.828Z,2941
2017-07-11T07:17:49.790Z,2947
2017-07-11T07:18:49.832Z,3493
2017-07-11T07:19:49.838Z,3285
2017-07-11T07:20:49.934Z,2452
2017-07-11T07:21:49.881Z,1631
2017-07-11T07:22:49.747Z,3543
2017-07-11T07:23:49.834Z,1760
2017-07-11T07:24:49.811Z,1530
2017-07-11T07:25:49.792Z,3054
2017-07-11T07:26:49.746Z,1299
2017-07-11T07:27:49.845Z,1344
2017-07-11T07:28:49.836Z,2733
2017-07-11T07:29:49.816Z,3453
2017-07-11T07:30:49.756Z,1434
2017-07-11T07:31:49.831Z,1383
2017-07-11T07:32:49.839Z,1411
2017-07-11T07:33:49.746Z,1243
2017-07-11T07:34:49.816Z,1231
2017-07-11T07:35:49.760Z,1243
2017-07-11T07:36:49.758Z,1254
2017-07-11T07:37:49.823Z,1282
2017-07-11T07:38:49.851Z,3161
2017-07-11T07:39:49.845Z,1153
2017-07-11T07:40:49.851Z,1164
2017-07-11T07:41:49.957Z,1254
2017-07-11T07:42:49.847Z,3588
2017-07-11T07:43:49.767Z,3571
2017-07-11T07:44:49.768Z,3645
2017-07-11T07:45:49.807Z,3695
2017-07-11T07:46:49.841Z,3740
2017-07-11T07:47:49.843Z,3830
2017-07-11T07:48:49.847Z,3521
2017-07-11T07:49:49.848Z,3459
2017-07-11T07:50:49.841Z,3684
2017-07-11T07:51:49.758Z,3847
2017-07-11T07:52:49.784Z,4083
2017-07-11T07:53:49.862Z,3774
2017-07-11T07:54:49.759Z,3678
2017-07-11T07:55:49.761Z,3926
2017-07-11T07:56:49.842Z,4005
2017-07-11T07:57:49.759Z,3948
2017-07-11T07:58:49.757Z,3858
2017-07-11T07:59:49.803Z,3881
2017-07-11T08:00:49.768Z,3898
2017-07-11T08:01:49.764Z,3105
2017-07-11T08:02:49.763Z,4050
2017-07-11T08:03:49.848Z,4185
2017-07-11T08:04:49.759Z,4466
2017-07-11T08:05:49.842Z,4573
2017-07-11T08:06:49.754Z,4567
2017-07-11T08:07:49.813Z,3251
2017-07-11T08:08:49.767Z,2953
2017-07-11T08:09:49.773Z,2638
2017-07-11T08:10:49.771Z,4438
2017-07-11T08:11:49.809Z,2520
2017-07-11T08:12:49.755Z,1980
2017-07-11T08:13:49.808Z,1929
2017-07-11T08:14:49.857Z,1597
2017-07-11T08:15:49.780Z,1411
2017-07-11T08:16:49.776Z,1395
2017-07-11T08:17:49.861Z,1530
2017-07-11T08:18:49.772Z,1670
2017-07-11T08:19:49.783Z,1743
2017-07-11T08:20:49.966Z,1715
2017-07-11T08:21:49.873Z,1732
2017-07-11T08:22:49.787Z,1946
2017-07-11T08:23:49.886Z,2193
2017-07-11T08:24:49.850Z,2413
2017-07-11T08:25:49.850Z,2289
2017-07-11T08:26:49.851Z,2199
2017-07-11T08:27:49.852Z,2081
2017-07-11T08:28:49.835Z,2193
2017-07-11T08:29:49.870Z,2452
2017-07-11T08:30:49.854Z,2818
2017-07-11T08:31:49.846Z,3285
2017-07-11T08:32:49.851Z,5068
2017-07-11T08:33:49.856Z,2643
2017-07-11T08:34:49.881Z,2581
2017-07-11T08:35:49.854Z,3605
2017-07-11T08:36:49.855Z,4201
2017-07-11T08:37:49.949Z,1890
2017-07-11T08:38:49.883Z,1901
2017-07-11T08:39:49.940Z,2165
2017-07-11T08:40:49.855Z,4876
2017-07-11T08:41:49.924Z,2463
2017-07-11T08:42:49.860Z,5028
2017-07-11T08:43:49.859Z,5118
2017-07-11T08:44:49.859Z,2508
2017-07-11T08:45:49.944Z,5017
2017-07-11T08:46:49.861Z,4921
2017-07-11T08:47:49.860Z,4680
2017-07-11T08:48:49.867Z,2390
2017-07-11T08:49:49.862Z,2278
2017-07-11T08:50:49.865Z,5023
2017-07-11T08:51:49.865Z,5242
2017-07-11T08:52:49.946Z,3307
2017-07-11T08:53:49.866Z,2840
2017-07-11T08:54:49.866Z,2463
2017-07-11T08:55:49.864Z,2261
2017-07-11T08:56:49.869Z,2458
2017-07-11T08:57:49.883Z,2266
2017-07-11T08:58:49.867Z,2227
2017-07-11T08:59:49.872Z,2193
2017-07-11T09:00:49.870Z,2261
2017-07-11T09:01:49.872Z,2137
2017-07-11T09:02:49.872Z,2227
2017-07-11T09:03:49.874Z,2047
2017-07-11T09:04:49.872Z,1918
2017-07-11T09:05:49.861Z,1721
2017-07-11T09:06:49.863Z,1485
2017-07-11T09:07:49.860Z,1434
2017-07-11T09:08:49.865Z,1445
2017-07-11T09:09:49.861Z,1485
2017-07-11T09:10:49.861Z,1591
2017-07-11T09:11:49.865Z,1625
2017-07-11T09:12:49.865Z,1580
2017-07-11T09:13:49.862Z,1563
2017-07-11T09:14:49.867Z,1749
2017-07-11T09:15:49.902Z,2047
2017-07-11T09:16:49.785Z,2553
2017-07-11T09:17:49.809Z,3397
2017-07-11T09:18:49.851Z,3346
2017-07-11T09:19:49.822Z,2576
2017-07-11T09:20:49.852Z,2486
2017-07-11T09:21:49.792Z,2851
2017-07-11T09:22:49.850Z,4539
2017-07-11T09:23:49.808Z,2930
2017-07-11T09:24:49.837Z,5793
2017-07-11T09:25:49.875Z,5405
2017-07-11T09:26:49.871Z,5608
2017-07-11T09:27:49.873Z,4668
2017-07-11T09:28:49.873Z,5326
2017-07-11T09:29:49.875Z,3780
2017-07-11T09:30:49.875Z,5203
2017-07-11T09:31:49.875Z,3853
2017-07-11T09:32:49.873Z,2565
2017-07-11T09:33:49.878Z,2210
2017-07-11T09:34:49.875Z,2193
2017-07-11T09:35:49.846Z,2340
2017-07-11T09:36:49.909Z,2587
2017-07-11T09:37:49.868Z,2666
2017-07-11T09:38:49.907Z,2812
2017-07-11T09:39:49.912Z,3571
2017-07-11T09:40:49.915Z,3088
2017-07-11T09:41:49.916Z,3172
2017-07-11T09:42:49.826Z,2424
2017-07-11T09:43:49.916Z,2340
2017-07-11T09:44:49.927Z,2385
2017-07-11T09:45:49.917Z,2469
2017-07-11T09:46:49.920Z,2390
2017-07-11T09:47:49.836Z,2289
2017-07-11T09:48:49.922Z,2356
2017-07-11T09:49:49.875Z,2311
2017-07-11T09:50:49.913Z,2553
2017-07-11T09:51:49.838Z,3273
2017-07-11T09:52:49.840Z,1884
2017-07-11T09:53:49.970Z,1591
2017-07-11T09:54:49.920Z,1468
2017-07-11T09:55:49.900Z,1305
2017-07-11T09:56:49.909Z,1237
2017-07-11T09:57:49.907Z,1265
2017-07-11T09:58:49.899Z,1338
2017-07-11T09:59:49.920Z,1440
2017-07-11T10:00:49.906Z,1580
2017-07-11T10:01:49.905Z,1800
2017-07-11T10:02:49.905Z,2092
2017-07-11T10:03:49.906Z,5383
2017-07-11T10:04:49.881Z,4837
2017-07-11T10:05:49.928Z,5940
2017-07-11T10:06:49.850Z,5782
2017-07-11T10:07:49.907Z,5411
2017-07-11T10:08:49.924Z,5428
2017-07-11T10:09:49.929Z,5326
2017-07-11T10:10:49.850Z,5484
2017-07-11T10:11:49.930Z,5113
2017-07-11T10:12:49.855Z,5118
2017-07-11T10:13:49.842Z,4815
2017-07-11T10:14:49.929Z,2863
2017-07-11T10:15:49.930Z,4522
2017-07-11T10:16:49.849Z,4798
2017-07-11T10:17:49.847Z,5062
2017-07-11T10:19:49.854Z,3043
2017-07-11T10:20:49.919Z,1440
2017-07-11T10:21:49.897Z,1288
2017-07-11T10:22:49.949Z,1209
2017-07-11T10:23:49.898Z,1164
2017-07-11T10:24:49.895Z,1175
2017-07-11T10:25:49.935Z,1282
2017-07-11T10:26:49.937Z,1411
2017-07-11T10:27:49.857Z,1575
2017-07-11T10:28:49.920Z,1783
2017-07-11T10:29:49.896Z,1929
2017-07-11T10:30:49.901Z,2486
2017-07-11T10:31:49.939Z,2131
2017-07-11T10:32:49.918Z,2221
2017-07-11T10:33:49.859Z,2508
2017-07-11T10:34:49.942Z,5765
2017-07-11T10:35:49.863Z,5574
2017-07-11T10:36:49.866Z,5326
2017-07-11T10:37:49.861Z,4792
2017-07-11T10:38:49.858Z,3420
2017-07-11T10:39:49.944Z,2570
2017-07-11T10:40:49.949Z,1316
2017-07-11T10:41:49.905Z,1158
2017-07-11T10:42:49.949Z,1068
2017-07-11T10:43:49.934Z,1074
2017-07-11T10:44:49.946Z,1153
2017-07-11T10:45:49.950Z,1265
2017-07-11T10:46:49.958Z,1383
2017-07-11T10:47:49.957Z,1479
2017-07-11T10:48:49.953Z,1552
2017-07-11T10:49:49.874Z,1648
2017-07-11T10:50:49.869Z,1710
2017-07-11T10:51:49.872Z,1766
2017-07-11T10:52:49.951Z,1788
2017-07-11T10:53:49.953Z,1912
2017-07-11T10:54:49.910Z,2109
2017-07-11T10:55:49.924Z,4156
2017-07-11T10:56:49.954Z,3369
2017-07-11T10:57:49.875Z,2311
2017-07-11T10:58:50.016Z,2199
2017-07-11T10:59:50.058Z,2250
2017-07-11T11:00:49.966Z,2913
2017-07-11T11:01:49.962Z,6513
2017-07-11T11:02:49.964Z,6446
2017-07-11T11:03:49.868Z,6750
2017-07-11T11:04:49.957Z,6631
2017-07-11T11:05:49.876Z,5720
2017-07-11T11:06:49.880Z,5636
2017-07-11T11:07:49.961Z,1935
2017-07-11T11:08:49.941Z,1653
2017-07-11T11:09:49.965Z,1440
2017-07-11T11:10:49.876Z,1333
2017-07-11T11:11:49.967Z,1310
2017-07-11T11:12:49.939Z,1355
2017-07-11T11:13:49.968Z,1440
2017-07-11T11:14:49.885Z,1546
2017-07-11T11:15:50.078Z,1681
2017-07-11T11:16:49.966Z,1845
2017-07-11T11:17:49.969Z,1861
2017-07-11T11:18:49.983Z,1811
2017-07-11T11:19:49.966Z,1715
2017-07-11T11:20:49.961Z,1625
2017-07-11T11:21:49.967Z,1575
2017-07-11T11:22:49.883Z,1535
2017-07-11T11:23:49.894Z,1468
2017-07-11T11:24:49.885Z,1434
2017-07-11T11:25:49.892Z,1445
2017-07-11T11:26:49.934Z,1479
2017-07-11T11:27:49.974Z,1558
2017-07-11T11:28:49.913Z,1693
2017-07-11T11:29:49.950Z,1856
2017-07-11T11:30:49.958Z,1861
2017-07-11T11:31:49.972Z,1828
2017-07-11T11:32:49.890Z,1760
2017-07-11T11:33:49.977Z,1710
2017-07-11T11:34:49.978Z,1715
2017-07-11T11:35:49.867Z,1766
2017-07-11T11:36:49.883Z,1828
2017-07-11T11:37:49.931Z,1929
2017-07-11T11:38:49.885Z,2025
2017-07-11T11:39:49.925Z,2086
2017-07-11T11:40:49.988Z,2075
2017-07-11T11:41:49.883Z,1996
2017-07-11T11:42:49.938Z,1912
2017-07-11T11:43:49.873Z,1805
2017-07-11T11:44:49.939Z,1738
2017-07-11T11:45:49.984Z,2041
2017-07-11T11:46:49.907Z,3926
2017-07-11T11:47:49.987Z,2210
2017-07-11T11:48:49.986Z,1653
2017-07-11T11:49:49.904Z,1715
2017-07-11T11:50:49.904Z,1946
2017-07-11T11:51:50.011Z,2160
2017-07-11T11:52:49.946Z,2238
2017-07-11T11:53:49.987Z,2036
2017-07-11T11:54:49.969Z,1867
2017-07-11T11:55:49.975Z,1794
2017-07-11T11:56:49.973Z,1850
2017-07-11T11:57:49.974Z,2165
2017-07-11T11:58:49.966Z,3290
2017-07-11T11:59:49.978Z,2581
2017-07-11T12:00:49.972Z,2356
2017-07-11T12:01:49.979Z,2278
2017-07-11T12:02:49.977Z,2255
2017-07-11T12:03:49.975Z,2396
2017-07-11T12:04:49.890Z,2868
2017-07-11T12:05:49.976Z,3408
2017-07-11T12:06:49.994Z,3740
2017-07-11T12:07:49.962Z,3099
2017-07-11T12:08:49.995Z,5512
2017-07-11T12:09:49.996Z,5670
2017-07-11T12:10:50.003Z,5338
2017-07-11T12:11:49.998Z,5253
2017-07-11T12:12:49.995Z,5355
2017-07-11T12:13:49.920Z,5473
2017-07-11T12:14:50.010Z,5917
2017-07-11T12:15:50.007Z,6193
2017-07-11T12:16:49.982Z,6339
2017-07-11T12:17:49.984Z,6046
2017-07-11T12:18:49.985Z,6097
2017-07-11T12:19:49.986Z,5495
2017-07-11T12:20:49.982Z,5163
2017-07-11T12:21:49.986Z,5011
2017-07-11T12:22:49.919Z,5405
2017-07-11T12:23:49.983Z,5146
2017-07-11T12:24:49.986Z,5248
2017-07-11T12:25:49.991Z,5776
2017-07-11T12:26:49.986Z,5416
2017-07-11T12:28:50.005Z,5968
2017-07-11T12:29:49.988Z,4376
2017-07-11T12:30:49.989Z,4449
2017-07-11T12:31:50.025Z,6384
2017-07-11T12:32:49.995Z,5338
2017-07-11T12:33:49.996Z,5276
2017-07-11T12:34:49.990Z,5760
2017-07-11T12:35:49.995Z,5557
2017-07-11T12:36:50.012Z,2643
2017-07-11T12:37:49.971Z,2548
2017-07-11T12:38:50.013Z,2649
2017-07-11T12:39:49.927Z,4168
2017-07-11T12:40:50.015Z,4123
2017-07-11T12:41:50.021Z,3875
2017-07-11T12:42:49.996Z,3245
2017-07-11T12:43:50.058Z,3020
2017-07-11T12:44:49.925Z,2913
2017-07-11T12:45:50.021Z,2812
2017-07-11T12:46:49.955Z,3262
2017-07-11T12:47:50.018Z,5203
2017-07-11T12:48:50.030Z,2913
2017-07-11T12:49:49.987Z,2531
2017-07-11T12:50:50.019Z,2413
2017-07-11T12:51:49.933Z,2345
2017-07-11T12:52:49.937Z,2317
2017-07-11T12:53:49.962Z,2351
2017-07-11T12:54:50.033Z,2401
2017-07-11T12:55:50.028Z,2469
2017-07-11T12:56:49.971Z,2604
2017-07-11T12:57:50.028Z,2953
2017-07-11T12:58:50.024Z,3701
2017-07-11T12:59:50.036Z,3538
2017-07-11T13:00:49.940Z,3290
2017-07-11T13:01:49.948Z,3093
2017-07-11T13:02:50.031Z,2801
2017-07-11T13:03:49.936Z,3690
2017-07-11T13:04:50.029Z,3706
2017-07-11T13:05:50.022Z,4021
2017-07-11T13:06:50.002Z,4308
2017-07-11T13:07:50.030Z,3442
2017-07-11T13:08:49.939Z,3391
2017-07-11T13:09:50.030Z,3093
2017-07-11T13:10:50.032Z,3375
2017-07-11T13:11:50.031Z,2930
2017-07-11T13:12:50.063Z,3526
2017-07-11T13:13:50.035Z,2835
2017-07-11T13:14:50.035Z,2846
2017-07-11T13:15:50.083Z,2497
2017-07-11T13:16:50.136Z,2520
2017-07-11T13:17:50.044Z,2452
2017-07-11T13:18:50.042Z,2413
2017-07-11T13:19:50.031Z,2396
2017-07-11T13:20:50.037Z,2446
2017-07-11T13:21:50.168Z,2480
2017-07-11T13:22:50.038Z,2525
2017-07-11T13:23:50.042Z,2525
2017-07-11T13:24:50.033Z,2497
2017-07-11T13:25:49.961Z,2491
2017-07-11T13:26:50.049Z,2525
2017-07-11T13:27:50.003Z,2688
2017-07-11T13:28:50.052Z,2823
2017-07-11T13:29:50.037Z,3048
2017-07-11T13:30:50.045Z,2936
2017-07-11T13:31:49.965Z,2936
2017-07-11T13:32:50.005Z,3060
2017-07-11T13:33:50.042Z,3048
2017-07-11T13:34:50.002Z,3425
2017-07-11T13:35:50.011Z,3436
2017-07-11T13:36:50.044Z,3470
2017-07-11T13:37:50.039Z,3448
2017-07-11T13:38:50.020Z,3931
2017-07-11T13:39:50.048Z,3819
2017-07-11T13:40:50.049Z,3105
2017-07-11T13:41:50.056Z,2868
2017-07-11T13:42:49.968Z,2891
2017-07-11T13:43:50.044Z,3009
2017-07-11T13:44:50.049Z,3211
2017-07-11T13:45:50.050Z,3436
2017-07-11T13:46:50.035Z,3555